Time;durP1;ratioP1;P1;durP2;ratioP2;P2;SDS_P1;SDS_P2;PMS_P1;PMS_P2;Temp;Humidity;BMP_temperature;BMP_pressure;BME280_temperature;BME280_humidity;BME280_pressure;Samples;Min_cycle;Max_cycle;Signal;HPM_P1;HPM_P2
2022/12/17 13:06:10;;;;;;;16.97;7.37;;;;;;;20.25;100.00;151128.38;5094119;28;20179;-62
2022/12/17 13:08:37;;;;;;;16.13;7.70;;;;;;;20.06;100.00;151080.03;5093869;28;20191;-60
2022/12/17 13:11:12;;;;;;;8.13;7.07;;;;;;;19.98;100.00;151060.94;5093219;28;20208;-61
2022/12/17 13:13:54;;;;;;;9.97;8.07;;;;;;;20.03;100.00;151072.34;5093511;28;20191;-60
2022/12/17 13:16:33;;;;;;;13.07;7.07;;;;;;;20.08;100.00;151085.09;5093196;28;20188;-61
2022/12/17 13:19:17;;;;;;;25.83;7.17;;;;;;;19.92;100.00;151045.66;5092233;28;20195;-60
2022/12/17 13:21:44;;;;;;;15.23;8.00;;;;;;;19.86;100.00;151029.13;5092415;28;20308;-60
2022/12/17 13:24:12;;;;;;;11.33;7.40;;;;;;;19.72;100.00;150993.47;5093059;28;20233;-61
2022/12/17 13:26:45;;;;;;;16.80;8.43;;;;;;;19.88;100.00;151034.19;5092933;28;20359;-61
2022/12/17 13:29:29;;;;;;;16.40;7.73;;;;;;;19.82;100.00;151020.16;5092785;28;20184;-61
2022/12/17 13:32:09;;;;;;;25.83;9.43;;;;;;;19.93;100.00;151046.94;5092846;28;20283;-60
2022/12/17 13:34:55;;;;;;;12.87;7.83;;;;;;;19.91;100.00;151041.81;5093135;28;20188;-60
2022/12/17 13:37:33;;;;;;;14.70;8.00;;;;;;;19.74;100.00;150998.53;5093184;28;20569;-60
2022/12/17 13:40:20;;;;;;;22.03;8.77;;;;;;;19.71;100.00;150992.19;5092890;28;20219;-60
2022/12/17 13:42:47;;;;;;;17.53;8.17;;;;;;;19.61;100.00;150968.00;5092698;28;20184;-60
2022/12/17 13:45:17;;;;;;;14.67;8.03;;;;;;;19.65;100.00;150975.66;5092604;28;20184;-61
2022/12/17 13:47:53;;;;;;;31.53;8.77;;;;;;;19.55;100.00;150952.75;5092546;28;20184;-61
2022/12/17 13:50:23;;;;;;;22.43;8.27;;;;;;;19.48;100.00;150933.63;5092350;28;20208;-61
2022/12/17 13:52:49;;;;;;;12.30;6.93;;;;;;;19.31;100.00;150891.56;5092703;28;20219;-61
2022/12/17 13:55:19;;;;;;;8.87;7.13;;;;;;;19.15;100.00;150850.88;5092681;28;20185;-61
2022/12/17 13:57:48;;;;;;;7.57;7.07;;;;;;;19.09;100.00;150835.63;5092292;28;20276;-61
2022/12/17 14:00:21;;;;;;;7.07;6.77;;;;;;;19.03;100.00;150820.34;5092483;28;20176;-59
2022/12/17 14:02:50;;;;;;;7.17;6.80;;;;;;;18.88;100.00;150783.47;5092506;28;20264;-61
2022/12/17 14:05:24;;;;;;;7.90;7.20;;;;;;;18.67;100.00;150730.06;5092006;28;20285;-59
2022/12/17 14:07:52;;;;;;;7.73;7.13;;;;;;;18.45;100.00;150675.31;5092452;28;20210;-60
2022/12/17 14:10:20;;;;;;;7.73;7.10;;;;;;;18.43;100.00;150668.94;5092027;28;20325;-60
2022/12/17 14:12:46;;;;;;;7.37;7.03;;;;;;;18.19;100.00;150610.47;5092320;28;20184;-60
2022/12/17 14:15:22;;;;;;;7.10;6.70;;;;;;;18.23;100.00;150620.63;5091707;28;20667;-61
2022/12/17 14:17:51;;;;;;;7.53;6.97;;;;;;;18.15;100.00;150600.28;5092243;28;20639;-60
2022/12/17 14:20:20;;;;;;;7.57;7.03;;;;;;;18.01;100.00;150563.41;5091820;28;20177;-60
2022/12/17 14:22:51;;;;;;;7.37;6.87;;;;;;;18.00;100.00;150560.84;5091811;28;20176;-61
2022/12/17 14:25:20;;;;;;;7.47;6.87;;;;;;;17.96;100.00;150550.69;5091717;28;20232;-60
2022/12/17 14:27:54;;;;;;;7.73;7.23;;;;;;;18.01;100.00;150564.69;5090880;28;20634;-59
2022/12/17 14:30:24;;;;;;;8.20;7.13;;;;;;;17.84;100.00;150520.19;5091684;28;20208;-60
2022/12/17 14:32:52;;;;;;;7.70;7.00;;;;;;;17.97;100.00;150554.50;5091349;28;20184;-60
2022/12/17 14:35:24;;;;;;;9.53;7.57;;;;;;;17.93;100.00;150544.34;5091765;28;20200;-61
2022/12/17 14:37:51;;;;;;;9.60;8.10;;;;;;;17.79;100.00;150510.00;5091873;28;20638;-60
2022/12/17 14:40:19;;;;;;;11.03;7.83;;;;;;;17.60;100.00;150461.75;5091466;28;20248;-60
2022/12/17 14:42:46;;;;;;;10.17;7.93;;;;;;;17.63;100.00;150468.06;5091540;28;20180;-60
2022/12/17 14:45:24;;;;;;;18.63;8.87;;;;;;;17.51;100.00;150438.81;5091431;28;20191;-61
2022/12/17 14:47:58;;;;;;;11.23;8.73;;;;;;;17.65;100.00;150474.41;5091416;28;20199;-61
2022/12/17 14:50:31;;;;;;;15.23;8.13;;;;;;;17.68;100.00;150480.78;5091444;28;20290;-60
2022/12/17 14:53:00;;;;;;;10.93;8.10;;;;;;;17.63;100.00;150469.34;5091388;28;20188;-61
2022/12/17 14:55:35;;;;;;;8.47;7.40;;;;;;;17.71;100.00;150489.69;5091668;28;20657;-60
2022/12/17 14:58:15;;;;;;;13.40;7.93;;;;;;;17.60;100.00;150460.47;5091316;28;20187;-61
2022/12/17 15:00:44;;;;;;;15.03;8.70;;;;;;;17.59;100.00;150459.19;5091397;28;20184;-59
2022/12/17 15:03:18;;;;;;;10.13;7.73;;;;;;;17.40;100.00;150410.81;5091521;28;20269;-59
2022/12/17 15:05:50;;;;;;;10.77;7.23;;;;;;;17.43;100.00;150418.47;5091337;28;20275;-61
2022/12/17 15:08:16;;;;;;;7.80;7.17;;;;;;;17.40;100.00;150409.59;5091503;28;20283;-60
2022/12/17 15:10:43;;;;;;;10.00;7.60;;;;;;;17.37;100.00;150403.22;5091227;28;20215;-61
2022/12/17 15:13:10;;;;;;;11.37;6.97;;;;;;;17.35;100.00;150398.16;5091177;28;20685;-60
2022/12/17 15:15:37;;;;;;;8.37;7.57;;;;;;;17.23;100.00;150368.91;5091516;28;20191;-61
2022/12/17 15:18:04;;;;;;;20.63;9.37;;;;;;;17.17;100.00;150352.41;5091124;28;20184;-60
2022/12/17 15:20:32;;;;;;;10.30;8.60;;;;;;;17.06;100.00;150325.69;5091417;28;20198;-60
2022/12/17 15:23:01;;;;;;;22.23;9.77;;;;;;;17.07;100.00;150326.97;5091103;28;20188;-60
2022/12/17 15:25:28;;;;;;;23.67;10.43;;;;;;;16.84;100.00;150271.13;5090865;28;20258;-60
2022/12/17 15:27:55;;;;;;;27.23;9.97;;;;;;;16.82;100.00;150266.00;5090222;28;20642;-60
2022/12/17 15:30:22;;;;;;;24.20;11.10;;;;;;;16.75;100.00;150248.25;5090185;28;20317;-60
2022/12/17 15:32:49;;;;;;;24.63;10.80;;;;;;;16.81;100.00;150262.19;5091388;28;20184;-61
2022/12/17 15:35:15;;;;;;;44.63;12.20;;;;;;;16.62;100.00;150215.22;5091193;28;20683;-59
2022/12/17 15:37:44;;;;;;;24.43;11.57;;;;;;;16.51;100.00;150187.22;5090966;28;20191;-60
2022/12/17 15:40:11;;;;;;;35.60;11.80;;;;;;;16.45;100.00;150173.28;5091154;28;20291;-59
2022/12/17 15:45:22;;;;;;;11.17;10.17;;;;;;;16.21;100.00;150112.28;5093204;28;20186;-59
2022/12/17 15:47:49;;;;;;;32.13;11.47;;;;;;;16.23;100.00;150116.13;5094855;28;20188;-60
2022/12/17 15:50:16;;;;;;;41.20;11.67;;;;;;;16.23;100.00;150116.13;5095047;28;20575;-60
2022/12/17 15:52:44;;;;;;;17.80;12.30;;;;;;;16.29;100.00;150131.38;5094713;28;20180;-60
2022/12/17 15:55:12;;;;;;;28.77;11.87;;;;;;;16.26;100.00;150125.00;5094886;28;20214;-60
2022/12/17 15:57:39;;;;;;;28.93;13.00;;;;;;;16.22;100.00;150113.56;5094950;28;20297;-61
2022/12/17 16:00:07;;;;;;;31.63;13.83;;;;;;;16.19;100.00;150105.97;5094475;28;20195;-60
2022/12/17 16:02:33;;;;;;;54.13;15.20;;;;;;;15.98;100.00;150053.94;5094584;28;20184;-61
2022/12/17 16:05:00;;;;;;;54.43;15.27;;;;;;;15.95;100.00;150046.31;5094754;28;20596;-59
2022/12/17 16:07:28;;;;;;;40.20;15.27;;;;;;;15.99;100.00;150057.75;5094508;28;20188;-60
2022/12/17 16:09:56;;;;;;;33.43;14.67;;;;;;;15.95;100.00;150047.56;5094490;28;20184;-61
2022/12/17 16:12:22;;;;;;;42.47;14.63;;;;;;;15.88;100.00;150029.78;5094177;28;20210;-59
2022/12/17 16:14:49;;;;;;;44.53;15.13;;;;;;;15.71;100.00;149986.63;5094718;28;20635;-60
2022/12/17 16:17:16;;;;;;;53.67;16.70;;;;;;;15.81;100.00;150010.75;5094532;28;20566;-58
2022/12/17 16:19:43;;;;;;;35.77;16.20;;;;;;;15.77;100.00;150001.88;5094414;28;20631;-60
2022/12/17 16:22:10;;;;;;;40.60;18.27;;;;;;;15.71;100.00;149986.63;5094083;28;20191;-60
2022/12/17 16:24:37;;;;;;;44.70;20.47;;;;;;;15.60;100.00;149958.72;5094108;28;20196;-60
2022/12/17 16:27:05;;;;;;;54.43;22.63;;;;;;;15.49;100.00;149930.75;5093926;28;20238;-61
2022/12/17 16:29:32;;;;;;;43.40;21.47;;;;;;;15.39;100.00;149905.41;5094288;28;20527;-60
2022/12/17 16:32:00;;;;;;;56.37;20.43;;;;;;;15.29;100.00;142596.78;5093921;28;20211;-60
2022/12/17 16:34:27;;;;;;;66.50;25.50;;;;;;;15.23;100.00;137073.75;5094177;28;20665;-60
2022/12/17 16:36:54;;;;;;;72.50;28.80;;;;;;;15.13;100.00;132399.50;5094312;28;20192;-60
2022/12/17 16:39:21;;;;;;;71.17;32.90;;;;;;;14.98;100.00;115679.94;5093787;28;20564;-60
2022/12/17 16:41:48;;;;;;;61.17;29.60;;;;;;;14.93;100.00;107357.88;5094057;28;20566;-60
2022/12/17 16:44:16;;;;;;;44.67;23.00;;;;;;;14.89;100.00;95414.94;5093745;28;20185;-60
2022/12/17 16:46:45;;;;;;;40.10;21.70;;;;;;;14.91;100.00;78908.19;5092783;28;20641;-60
2022/12/17 16:49:15;;;;;;;33.80;20.23;;;;;;;14.93;100.00;71999.41;5093645;28;20242;-61
2022/12/17 16:51:44;;;;;;;36.90;18.60;;;;;;;14.97;100.00;69375.13;5093526;28;20254;-60
2022/12/17 16:54:14;;;;;;;38.23;18.23;;;;;;;14.97;100.00;71018.13;5093821;28;20184;-60
2022/12/17 16:56:41;;;;;;;41.50;21.20;;;;;;;15.05;100.00;77609.38;5092866;28;20731;-60
2022/12/17 16:59:10;;;;;;;28.13;18.00;;;;;;;14.99;100.00;82874.69;5093782;28;20562;-61
2022/12/17 17:01:40;;;;;;;39.40;18.10;;;;;;;14.98;100.00;79906.09;5093451;28;20191;-59
2022/12/17 17:04:09;;;;;;;25.00;16.27;;;;;;;14.98;100.00;79246.41;5093324;28;20195;-60
2022/12/17 17:06:38;;;;;;;27.90;17.40;;;;;;;14.97;100.00;79904.75;5093287;28;20184;-59
2022/12/17 17:09:06;;;;;;;39.43;17.47;;;;;;;14.99;100.00;84193.56;5093443;28;20622;-62
2022/12/17 17:11:32;;;;;;;23.77;16.93;;;;;;;14.94;100.00;83856.44;5093081;28;20218;-61
2022/12/17 17:14:00;;;;;;;27.27;17.00;;;;;;;14.82;100.00;82520.91;5093142;28;20195;-60
2022/12/17 17:16:27;;;;;;;23.27;15.93;;;;;;;14.75;100.00;83169.75;5093152;28;20187;-61
2022/12/17 17:18:56;;;;;;;28.30;16.60;;;;;;;15.01;100.00;86507.72;5093327;28;20184;-60
2022/12/17 17:21:27;;;;;;;23.20;15.10;;;;;;;15.01;100.00;89150.25;5093224;28;20639;-60
2022/12/17 17:23:58;;;;;;;36.10;17.43;;;;;;;14.94;100.00;90791.25;5093272;28;20558;-60
2022/12/17 17:26:26;;;;;;;32.70;16.27;;;;;;;14.89;100.00;90784.34;5092758;28;20235;-61
2022/12/17 17:28:53;;;;;;;19.57;14.37;;;;;;;14.76;100.00;96716.88;5093098;28;20528;-59
2022/12/17 17:31:20;;;;;;;19.73;14.30;;;;;;;14.75;100.00;102015.63;5092696;28;20214;-60
2022/12/17 17:33:49;;;;;;;22.50;15.00;;;;;;;14.71;100.00;101678.09;5092802;28;20184;-61
2022/12/17 17:36:19;;;;;;;31.67;14.87;;;;;;;14.64;100.00;107636.97;5092950;28;20214;-60
2022/12/17 17:38:47;;;;;;;29.50;13.47;;;;;;;14.62;100.00;113947.94;5091753;28;20195;-61
2022/12/17 17:41:15;;;;;;;31.70;14.40;;;;;;;14.54;100.00;120922.00;5092843;28;20574;-60
2022/12/17 17:43:43;;;;;;;35.93;13.90;;;;;;;14.41;100.00;124895.28;5092867;28;20540;-61
2022/12/17 17:46:14;;;;;;;17.13;10.77;;;;;;;14.47;100.00;132922.34;5092456;28;20191;-61
2022/12/17 17:48:41;;;;;;;17.60;10.20;;;;;;;14.48;100.00;140365.63;5092833;28;20532;-60
2022/12/17 17:51:11;;;;;;;20.67;8.10;;;;;;;14.53;100.00;145881.22;5092308;28;20208;-60
2022/12/17 17:53:40;;;;;;;8.03;7.30;;;;;;;14.68;100.00;149727.81;5092447;28;20188;-61
2022/12/17 17:56:13;;;;;;;8.43;7.53;;;;;;;14.80;100.00;149758.25;5092337;28;20226;-60
2022/12/17 17:58:41;;;;;;;7.93;6.60;;;;;;;14.84;100.00;149768.41;5092287;28;20266;-60
2022/12/17 18:01:09;;;;;;;34.47;13.10;;;;;;;14.75;100.00;149744.28;5092222;28;20187;-61
2022/12/17 18:03:37;;;;;;;31.70;16.27;;;;;;;14.66;100.00;149722.72;5092152;28;20184;-61
2022/12/17 18:06:05;;;;;;;30.80;16.93;;;;;;;14.53;100.00;135628.44;5092433;28;20180;-61
2022/12/17 18:08:33;;;;;;;31.63;17.10;;;;;;;14.34;100.00;119881.78;5091938;28;20245;-61
2022/12/17 18:11:02;;;;;;;34.93;18.60;;;;;;;14.22;100.00;104907.00;5092155;28;20574;-60
2022/12/17 18:16:14;;;;;;;31.13;19.97;;;;;;;13.91;100.00;75815.50;5090959;28;20269;-62
2022/12/17 18:18:41;;;;;;;27.97;18.83;;;;;;;13.96;100.00;79110.31;5091935;28;20188;-60
2022/12/17 18:21:12;;;;;;;34.07;21.17;;;;;;;13.88;100.00;80744.31;5092100;28;20642;-60
2022/12/17 18:23:39;;;;;;;37.27;20.80;;;;;;;13.78;100.00;71203.13;5090660;28;20191;-60
2022/12/17 18:26:09;;;;;;;30.07;21.17;;;;;;;13.61;100.00;63320.41;5091651;28;20235;-61
2022/12/17 18:28:37;;;;;;;36.40;20.97;;;;;;;13.60;100.00;54168.88;5091742;28;20194;-60
2022/12/17 18:31:09;;;;;;;33.60;21.40;;;;;;;13.46;100.00;46985.44;5091610;28;20211;-60
2022/12/17 18:33:37;;;;;;;29.70;20.83;;;;;;;13.60;100.00;44718.59;5091733;28;20180;-60
2022/12/17 18:36:09;;;;;;;33.73;18.90;;;;;;;13.60;100.00;45043.63;5091808;28;20196;-60
2022/12/17 18:38:36;;;;;;;22.27;12.90;;;;;;;13.58;100.00;50905.25;5091451;28;20200;-59
2022/12/17 18:43:21;;;;;;;13.73;12.23;;;;;;;13.62;100.00;54497.13;5091487;28;20184;-60
2022/12/17 18:43:54;;;;;;;10.33;8.40;;;;;;;13.70;100.00;58097.28;5091370;28;20206;-60
2022/12/17 18:46:21;;;;;;;6.00;5.43;;;;;;;13.75;100.00;61699.00;5091609;28;20706;-61
2022/12/17 18:48:50;;;;;;;10.90;8.70;;;;;;;13.84;100.00;67602.59;5091809;28;20184;-61
2022/12/17 18:51:17;;;;;;;12.30;6.97;;;;;;;13.80;100.00;71205.56;5091345;28;20221;-60
2022/12/17 18:53:44;;;;;;;7.67;7.13;;;;;;;13.80;100.00;71533.66;5091417;28;20183;-60
2022/12/17 18:56:13;;;;;;;7.77;6.60;;;;;;;13.83;100.00;74491.84;5091664;28;20184;-61
2022/12/17 18:58:39;;;;;;;5.13;4.50;;;;;;;13.77;100.00;75140.34;5091367;28;20187;-60
2022/12/17 19:01:07;;;;;;;3.63;3.30;;;;;;;14.01;100.00;82408.22;5091150;28;20187;-60
2022/12/17 19:03:34;;;;;;;3.00;2.73;;;;;;;14.21;100.00;100599.06;5091230;28;20188;-60
2022/12/17 19:06:05;;;;;;;3.30;3.10;;;;;;;14.51;100.00;124249.41;5091582;28;20192;-59
2022/12/17 19:08:35;;;;;;;2.77;2.67;;;;;;;14.79;100.00;149755.72;5091216;28;20188;-60
2022/12/17 19:11:06;;;;;;;2.77;2.57;;;;;;;15.01;100.00;149811.53;5091315;28;20653;-60
2022/12/17 19:13:34;;;;;;;2.90;2.80;;;;;;;15.21;100.00;149859.72;5091257;28;20184;-61
2022/12/17 19:16:06;;;;;;;2.80;2.60;;;;;;;15.32;100.00;149887.66;5091449;28;20623;-60
2022/12/17 19:18:34;;;;;;;2.70;2.60;;;;;;;15.30;100.00;149882.56;5091447;28;20195;-60
2022/12/17 19:21:01;;;;;;;2.97;2.87;;;;;;;15.32;100.00;149887.66;5094823;28;20623;-60
2022/12/17 19:23:29;;;;;;;4.00;3.30;;;;;;;15.23;100.00;149866.06;5095481;28;20188;-60
2022/12/17 19:25:57;;;;;;;3.63;3.43;;;;;;;15.04;100.00;149817.84;5095059;28;20231;-60
2022/12/17 19:28:24;;;;;;;4.03;3.83;;;;;;;14.83;100.00;149764.56;5095574;28;20575;-61
2022/12/17 19:30:57;;;;;;;4.57;4.37;;;;;;;14.65;100.00;149720.19;5095104;28;20188;-60
2022/12/17 19:33:24;;;;;;;5.13;4.93;;;;;;;14.40;100.00;148749.06;5095337;28;20211;-60
2022/12/17 19:35:51;;;;;;;8.07;7.47;;;;;;;14.22;100.00;119192.56;5095200;28;20295;-60
2022/12/17 19:38:17;;;;;;;8.00;7.30;;;;;;;14.16;100.00;104898.09;5095645;28;20210;-60
2022/12/17 19:40:45;;;;;;;18.73;7.70;;;;;;;14.14;100.00;100587.91;5094932;28;20635;-59
2022/12/17 19:43:12;;;;;;;6.67;6.07;;;;;;;13.99;100.00;99569.44;5094820;28;20230;-59
2022/12/17 19:45:38;;;;;;;5.70;5.13;;;;;;;14.12;100.00;99591.47;5095084;28;20206;-60
2022/12/17 19:48:07;;;;;;;4.20;4.00;;;;;;;14.14;100.00;106552.34;5094955;28;20614;-60
2022/12/17 19:50:33;;;;;;;7.00;3.87;;;;;;;14.30;100.00;113886.00;5094748;28;20198;-61
2022/12/17 19:53:01;;;;;;;6.13;3.60;;;;;;;14.38;100.00;117893.38;5094546;28;20227;-60
2022/12/17 19:55:28;;;;;;;3.70;3.50;;;;;;;14.48;100.00;124576.56;5094759;28;20777;-60
2022/12/17 19:57:55;;;;;;;4.80;4.43;;;;;;;14.58;100.00;138603.13;5094687;28;20191;-61
2022/12/17 20:00:22;;;;;;;4.47;4.07;;;;;;;14.57;100.00;141088.66;5094520;28;20258;-61
2022/12/17 20:02:49;;;;;;;4.03;3.87;;;;;;;14.57;100.00;143508.72;5093642;28;20642;-59
2022/12/17 20:05:17;;;;;;;3.67;3.50;;;;;;;14.55;100.00;144089.34;5094486;28;20188;-60
2022/12/17 20:07:44;;;;;;;4.40;4.20;;;;;;;14.39;100.00;140357.31;5093343;28;20204;-61
2022/12/17 20:10:11;;;;;;;4.00;3.80;;;;;;;14.37;100.00;123219.72;5094361;28;20188;-61
2022/12/17 20:12:38;;;;;;;3.77;3.47;;;;;;;14.35;100.00;116555.25;5094551;28;20679;-59
2022/12/17 20:15:06;;;;;;;3.73;3.53;;;;;;;14.33;100.00;113227.00;5094180;28;20195;-60
2022/12/17 20:17:33;;;;;;;3.10;3.00;;;;;;;14.25;100.00;120863.53;5094643;28;20207;-60
2022/12/17 20:19:59;;;;;;;3.47;3.30;;;;;;;14.30;100.00;123872.75;5094138;28;20283;-59
2022/12/17 20:22:29;;;;;;;3.13;2.93;;;;;;;14.26;100.00;130202.47;5094497;28;20692;-59
2022/12/17 20:24:56;;;;;;;3.23;2.80;;;;;;;14.42;100.00;138365.59;5094247;28;20707;-60
2022/12/17 20:27:23;;;;;;;3.10;3.00;;;;;;;14.56;100.00;143658.22;5093155;28;20188;-60
2022/12/17 20:29:50;;;;;;;3.37;3.27;;;;;;;14.61;100.00;148153.91;5093994;28;20191;-61
2022/12/17 20:32:18;;;;;;;3.20;3.00;;;;;;;14.62;100.00;149713.88;5094151;28;20204;-60
2022/12/17 20:34:45;;;;;;;2.37;2.27;;;;;;;14.78;100.00;149753.16;5093985;28;20226;-61
2022/12/17 20:37:12;;;;;;;3.03;2.93;;;;;;;14.83;100.00;149764.56;5093934;28;20293;-60
2022/12/17 20:39:40;;;;;;;3.40;3.10;;;;;;;14.86;100.00;149772.19;5094089;28;20209;-60
2022/12/17 20:42:08;;;;;;;3.03;2.93;;;;;;;14.82;100.00;149763.31;5093873;28;20218;-60
2022/12/17 20:44:35;;;;;;;3.37;3.27;;;;;;;14.68;100.00;149726.56;5093765;28;20207;-61
2022/12/17 20:47:02;;;;;;;2.83;2.63;;;;;;;14.82;100.00;149763.31;5093667;28;20187;-60
2022/12/17 20:49:28;;;;;;;3.00;2.80;;;;;;;14.89;100.00;149779.81;5093659;28;20198;-60
2022/12/17 20:51:55;;;;;;;2.80;2.70;;;;;;;14.81;100.00;149759.53;5093756;28;20697;-60
2022/12/17 20:54:22;;;;;;;3.43;3.27;;;;;;;14.78;100.00;149751.88;5093595;28;20211;-60
2022/12/17 20:56:50;;;;;;;3.17;3.07;;;;;;;14.75;100.00;149745.56;5093534;28;20195;-60
2022/12/17 20:59:19;;;;;;;2.83;2.73;;;;;;;14.79;100.00;149755.72;5093655;28;20180;-59
2022/12/17 21:01:47;;;;;;;3.20;3.00;;;;;;;14.79;100.00;149755.72;5093396;28;20200;-60
2022/12/17 21:04:14;;;;;;;3.13;2.90;;;;;;;14.79;100.00;149755.72;5093471;28;20223;-60
2022/12/17 21:06:46;;;;;;;3.10;3.00;;;;;;;14.80;100.00;149758.25;5093603;28;20184;-59
2022/12/17 21:09:14;;;;;;;3.07;2.90;;;;;;;14.89;100.00;149779.81;5093241;28;20188;-61
2022/12/17 21:11:42;;;;;;;3.00;2.90;;;;;;;14.90;100.00;149783.59;5093425;28;20184;-60
2022/12/17 21:14:11;;;;;;;3.37;3.17;;;;;;;14.74;100.00;149741.75;5093108;28;20290;-60
2022/12/17 21:16:39;;;;;;;3.07;2.97;;;;;;;14.65;100.00;149720.19;5093325;28;20214;-59
2022/12/17 21:19:08;;;;;;;3.13;3.03;;;;;;;14.57;100.00;149699.91;5093029;28;20187;-60
2022/12/17 21:21:37;;;;;;;3.13;2.93;;;;;;;14.64;100.00;149718.91;5092944;28;20191;-61
2022/12/17 21:24:05;;;;;;;3.03;2.93;;;;;;;14.65;100.00;149720.19;5093225;28;20710;-60
2022/12/17 21:26:34;;;;;;;2.93;2.83;;;;;;;14.54;100.00;149693.59;5092763;28;20240;-59
2022/12/17 21:29:03;;;;;;;2.80;2.70;;;;;;;14.59;100.00;149706.28;5093180;28;20188;-60
2022/12/17 21:31:33;;;;;;;3.47;3.37;;;;;;;14.39;100.00;149654.25;5091623;28;20665;-60
2022/12/17 21:34:02;;;;;;;3.60;3.13;;;;;;;14.47;100.00;149674.56;5092997;28;20208;-59
2022/12/17 21:36:31;;;;;;;3.80;3.60;;;;;;;14.42;100.00;147834.75;5093033;28;20208;-60
2022/12/17 21:38:59;;;;;;;3.40;3.30;;;;;;;14.26;100.00;137338.28;5092663;28;20184;-60
2022/12/17 21:41:28;;;;;;;3.27;3.17;;;;;;;14.28;100.00;131542.94;5092931;28;20595;-60
2022/12/17 21:43:55;;;;;;;3.30;3.20;;;;;;;14.16;100.00;128846.22;5092302;28;20186;-60
2022/12/17 21:46:24;;;;;;;3.40;3.30;;;;;;;14.21;100.00;132529.56;5092750;28;20560;-60
2022/12/17 21:48:53;;;;;;;3.90;3.70;;;;;;;14.20;100.00;143152.88;5092715;28;20188;-60
2022/12/17 21:51:20;;;;;;;3.33;3.23;;;;;;;14.24;100.00;149616.19;5092743;28;20180;-61
2022/12/17 21:53:48;;;;;;;3.40;3.13;;;;;;;14.24;100.00;149617.44;5092811;28;20671;-60
2022/12/17 21:56:17;;;;;;;3.50;3.30;;;;;;;14.25;100.00;149620.00;5092386;28;20195;-61
2022/12/17 21:58:45;;;;;;;3.10;3.00;;;;;;;14.31;100.00;149635.19;5092799;28;20639;-60
2022/12/17 22:01:14;;;;;;;3.10;3.00;;;;;;;14.30;100.00;149631.41;5092388;28;20189;-60
2022/12/17 22:03:41;;;;;;;3.10;3.00;;;;;;;14.38;100.00;149651.75;5092404;28;20176;-60
2022/12/17 22:06:12;;;;;;;3.10;3.00;;;;;;;14.43;100.00;149665.66;5092521;28;20631;-61
2022/12/17 22:08:40;;;;;;;3.40;3.20;;;;;;;14.38;100.00;149651.75;5092304;28;20191;-60
2022/12/17 22:11:09;;;;;;;3.30;3.10;;;;;;;14.32;100.00;149636.47;5092465;28;20555;-60
2022/12/17 22:16:21;;;;;;;3.40;3.07;;;;;;;14.29;100.00;149628.88;5092711;28;20190;-60
2022/12/17 22:18:48;;;;;;;3.30;3.00;;;;;;;14.40;100.00;149656.78;5092356;28;20179;-61
2022/12/17 22:21:17;;;;;;;3.00;2.90;;;;;;;14.42;100.00;149661.88;5092084;28;20279;-60
2022/12/17 22:23:46;;;;;;;3.60;3.40;;;;;;;14.40;100.00;149656.78;5092079;28;20184;-61
2022/12/17 22:26:14;;;;;;;3.27;3.17;;;;;;;14.36;100.00;149646.66;5091819;28;20622;-60
2022/12/17 22:28:41;;;;;;;3.13;3.03;;;;;;;14.36;100.00;149646.66;5091805;28;20191;-60
2022/12/17 22:33:57;;;;;;;3.30;3.20;;;;;;;14.26;100.00;149621.28;5091714;28;20254;-59
2022/12/17 22:36:25;;;;;;;3.07;2.97;;;;;;;14.18;100.00;149602.22;5092399;28;20610;-60
2022/12/17 22:38:52;;;;;;;3.63;3.00;;;;;;;13.95;100.00;149545.22;5091607;28;20186;-60
2022/12/17 22:44:00;;;;;;;3.33;3.13;;;;;;;13.82;100.00;149512.25;5091310;28;20620;-60
2022/12/17 22:46:27;;;;;;;3.30;3.20;;;;;;;13.84;100.00;149516.03;5091639;28;20631;-59
2022/12/17 22:48:55;;;;;;;3.10;2.90;;;;;;;13.69;100.00;149479.31;5090157;28;20184;-60
2022/12/17 22:51:22;;;;;;;3.20;3.10;;;;;;;13.66;100.00;149472.94;5091500;28;20184;-60
2022/12/17 22:53:50;;;;;;;2.93;2.83;;;;;;;13.59;100.00;149453.94;5090656;28;20204;-62
2022/12/17 22:56:18;;;;;;;2.93;2.83;;;;;;;13.54;100.00;149441.28;5091161;28;20184;-62
2022/12/17 22:58:45;;;;;;;3.00;2.90;;;;;;;13.59;100.00;149453.94;5091411;28;20180;-59
2022/12/17 23:01:12;;;;;;;4.93;3.33;;;;;;;13.53;100.00;149438.78;5091562;28;20663;-60
2022/12/17 23:03:39;;;;;;;3.33;3.13;;;;;;;13.49;100.00;149428.63;5090350;28;20202;-60
2022/12/17 23:06:07;;;;;;;3.17;3.03;;;;;;;13.29;100.00;149379.19;5091243;28;20188;-60
2022/12/17 23:08:34;;;;;;;4.27;3.87;;;;;;;12.83;100.00;149265.19;5091316;28;20187;-61
2022/12/17 23:11:07;;;;;;;3.23;2.93;;;;;;;13.04;100.00;149317.09;5091216;28;20191;-61
2022/12/17 23:13:34;;;;;;;3.33;3.13;;;;;;;12.98;100.00;149301.91;5091191;28;20244;-60
2022/12/17 23:16:02;;;;;;;3.40;3.30;;;;;;;13.04;100.00;149317.09;5091453;28;20632;-61
2022/12/17 23:18:29;;;;;;;3.37;3.27;;;;;;;13.00;100.00;149305.69;5091204;28;20184;-60
2022/12/17 23:20:56;;;;;;;3.50;3.20;;;;;;;12.96;100.00;149296.84;5091435;28;20555;-60
2022/12/17 23:23:24;;;;;;;3.50;3.30;;;;;;;12.90;100.00;147515.44;5091448;28;20610;-60
2022/12/17 23:25:51;;;;;;;3.67;3.50;;;;;;;12.78;100.00;140665.75;5091008;28;20232;-60
2022/12/17 23:28:20;;;;;;;3.83;3.60;;;;;;;12.66;100.00;133852.69;5091075;28;20191;-60
2022/12/17 23:30:47;;;;;;;3.67;3.50;;;;;;;12.40;100.00;113521.81;5091017;28;20184;-61
2022/12/17 23:33:13;;;;;;;3.80;3.60;;;;;;;12.33;100.00;98631.84;5091033;28;20670;-61
2022/12/17 23:35:40;;;;;;;3.60;3.50;;;;;;;12.29;100.00;91045.59;5091111;28;20196;-61
2022/12/17 23:38:07;;;;;;;3.50;3.40;;;;;;;12.21;100.00;89387.84;5091279;28;20188;-60
2022/12/17 23:40:34;;;;;;;3.63;3.53;;;;;;;12.20;100.00;91030.81;5091291;28;20215;-61
2022/12/17 23:43:01;;;;;;;3.27;3.17;;;;;;;12.31;100.00;95001.28;5090951;28;20223;-60
2022/12/17 23:45:29;;;;;;;3.93;3.77;;;;;;;12.32;100.00;94343.84;5091179;28;20188;-60
2022/12/17 23:47:58;;;;;;;3.90;3.70;;;;;;;12.35;100.00;96985.91;5090867;28;20195;-60
2022/12/17 23:50:25;;;;;;;3.20;3.10;;;;;;;12.37;100.00;100287.84;5090969;28;20185;-60
2022/12/17 23:52:52;;;;;;;3.37;3.27;;;;;;;12.30;100.00;107215.06;5091216;28;20214;-59
2022/12/17 23:55:19;;;;;;;3.70;3.60;;;;;;;12.33;100.00;122134.53;5090846;28;20184;-60
2022/12/17 23:57:46;;;;;;;3.00;2.90;;;;;;;12.45;100.00;136699.19;5091591;28;20235;-60
